Time;durP1;ratioP1;P1;durP2;ratioP2;P2;SDS_P1;SDS_P2;PMS_P1;PMS_P2;Temp;Humidity;BMP_temperature;BMP_pressure;BME280_temperature;BME280_humidity;BME280_pressure;Samples;Min_cycle;Max_cycle;Signal;HPM_P1;HPM_P2
2021/09/02 00:00:44;;;;;;;4.57;3.03;;;19.60;57.70;;;;;;5038741;28;20186;-82
2021/09/02 00:03:16;;;;;;;3.80;2.63;;;19.60;57.70;;;;;;5022806;28;20221;-83
2021/09/02 00:05:44;;;;;;;4.20;2.80;;;19.70;57.60;;;;;;5054767;28;20589;-81
2021/09/02 00:08:12;;;;;;;4.07;2.65;;;19.60;57.60;;;;;;5055060;28;20186;-79
2021/09/02 00:10:37;;;;;;;3.97;2.67;;;19.60;57.60;;;;;;5053908;28;20280;-81
2021/09/02 00:13:05;;;;;;;4.07;2.70;;;19.60;57.70;;;;;;5038879;28;20163;-80
2021/09/02 00:15:33;;;;;;;4.82;2.80;;;19.60;57.70;;;;;;5053847;28;20229;-80
2021/09/02 00:18:03;;;;;;;4.72;2.92;;;19.70;57.70;;;;;;5054427;28;20261;-80
2021/09/02 00:20:30;;;;;;;4.25;2.70;;;19.60;57.60;;;;;;5037428;28;20597;-79
2021/09/02 00:23:00;;;;;;;3.80;2.70;;;19.60;57.60;;;;;;5036882;28;20190;-81
2021/09/02 00:25:31;;;;;;;3.45;2.70;;;19.60;57.60;;;;;;5020925;28;20297;-80
2021/09/02 00:27:58;;;;;;;4.60;2.80;;;19.60;57.70;;;;;;5037386;28;20187;-83
2021/09/02 00:30:25;;;;;;;4.18;2.90;;;19.60;57.70;;;;;;5053347;28;20186;-81
2021/09/02 00:32:52;;;;;;;4.70;2.90;;;19.60;57.60;;;;;;5053143;28;20235;-83
2021/09/02 00:35:22;;;;;;;3.42;2.53;;;19.60;57.70;;;;;;5020927;28;20237;-81
2021/09/02 00:37:47;;;;;;;3.80;2.60;;;19.60;57.60;;;;;;5020149;28;20179;-79
2021/09/02 00:40:14;;;;;;;4.05;2.80;;;19.50;57.60;;;;;;5037576;28;20290;-81
2021/09/02 00:42:44;;;;;;;4.47;2.92;;;19.60;57.70;;;;;;5037390;28;20252;-79
2021/09/02 00:45:12;;;;;;;3.78;2.65;;;19.50;57.70;;;;;;5054003;28;20548;-80
2021/09/02 00:47:44;;;;;;;4.47;3.00;;;19.50;57.70;;;;;;5052889;28;20179;-83
2021/09/02 00:50:13;;;;;;;3.83;2.65;;;19.50;57.80;;;;;;5053367;28;20183;-82
2021/09/02 00:52:43;;;;;;;3.45;2.60;;;19.50;57.70;;;;;;5037170;28;20633;-80
2021/09/02 00:55:14;;;;;;;3.45;2.65;;;19.60;57.80;;;;;;5052942;28;20210;-79
2021/09/02 00:57:43;;;;;;;3.55;2.63;;;19.60;57.70;;;;;;5037564;28;20183;-81
2021/09/02 01:00:14;;;;;;;3.13;2.50;;;19.50;57.60;;;;;;5037281;28;20190;-80
2021/09/02 01:02:43;;;;;;;3.55;2.67;;;19.60;57.70;;;;;;5038112;28;20183;-79
2021/09/02 01:05:13;;;;;;;3.83;2.72;;;19.60;57.70;;;;;;5053983;28;20216;-80
2021/09/02 01:07:41;;;;;;;4.78;2.90;;;19.50;57.70;;;;;;5021058;28;20178;-80
2021/09/02 01:10:11;;;;;;;4.88;3.20;;;19.50;57.70;;;;;;5020607;28;20233;-80
2021/09/02 01:12:41;;;;;;;4.55;3.13;;;19.50;57.80;;;;;;5000997;28;20677;-81
2021/09/02 01:15:13;;;;;;;4.95;2.80;;;19.60;57.80;;;;;;5016237;28;20219;-80
2021/09/02 01:17:43;;;;;;;4.43;3.22;;;19.50;57.60;;;;;;5033321;28;20183;-81
2021/09/02 01:20:13;;;;;;;3.55;2.58;;;19.60;57.70;;;;;;5033222;28;20279;-82
2021/09/02 01:22:42;;;;;;;4.43;2.83;;;19.60;57.70;;;;;;5016902;28;20202;-83
2021/09/02 01:25:12;;;;;;;4.35;2.60;;;19.50;57.70;;;;;;5033350;28;20191;-80
2021/09/02 01:27:43;;;;;;;3.95;2.65;;;19.50;57.70;;;;;;5000873;28;20179;-82
2021/09/02 01:30:16;;;;;;;3.97;3.00;;;19.50;57.70;;;;;;5000827;28;20270;-81
2021/09/02 01:32:43;;;;;;;4.50;2.70;;;19.50;57.60;;;;;;5032880;28;20183;-83
2021/09/02 01:35:11;;;;;;;3.85;2.75;;;19.50;57.70;;;;;;5018141;28;20202;-79
2021/09/02 01:37:43;;;;;;;4.97;2.85;;;19.50;57.70;;;;;;5000773;28;20183;-81
2021/09/02 01:40:32;;;;;;;3.75;2.80;;;19.50;57.70;;;;;;5016923;28;20179;-81
2021/09/02 01:43:03;;;;;;;3.70;2.92;;;19.50;57.70;;;;;;5017744;28;20158;-80
2021/09/02 01:45:32;;;;;;;5.50;2.60;;;19.60;57.80;;;;;;5001394;28;20184;-80
2021/09/02 01:48:03;;;;;;;3.90;2.80;;;19.50;57.80;;;;;;5000486;28;20207;-79
2021/09/02 01:50:35;;;;;;;4.63;2.97;;;19.50;57.80;;;;;;5016873;28;20229;-82
2021/09/02 01:53:07;;;;;;;4.13;2.60;;;19.50;57.80;;;;;;5017135;28;20202;-81
2021/09/02 01:55:35;;;;;;;4.25;3.00;;;19.50;57.70;;;;;;5016572;28;20714;-80
2021/09/02 01:58:04;;;;;;;4.13;2.70;;;19.50;57.80;;;;;;5032785;28;20546;-83
2021/09/02 02:00:32;;;;;;;4.03;2.60;;;19.50;57.70;;;;;;5021552;28;20235;-81
2021/09/02 02:03:01;;;;;;;4.25;2.80;;;19.50;57.60;;;;;;5037445;28;20175;-82
2021/09/02 02:05:30;;;;;;;4.18;2.90;;;19.50;57.70;;;;;;5020854;28;20191;-79
2021/09/02 02:08:02;;;;;;;3.75;2.67;;;19.50;57.70;;;;;;5003879;28;20180;-81
2021/09/02 02:10:28;;;;;;;3.63;2.70;;;19.50;57.70;;;;;;5005611;28;20187;-82
2021/09/02 02:12:57;;;;;;;3.38;2.63;;;19.50;57.70;;;;;;5041286;28;20258;-83
2021/09/02 02:15:28;;;;;;;4.57;2.88;;;19.50;57.70;;;;;;5024599;28;20277;-81
2021/09/02 02:17:58;;;;;;;5.18;3.28;;;19.50;57.80;;;;;;5056854;28;20179;-79
2021/09/02 02:20:24;;;;;;;3.45;2.47;;;19.50;57.70;;;;;;5056919;28;20183;-80
2021/09/02 02:22:51;;;;;;;4.38;2.90;;;19.50;57.80;;;;;;5023579;28;20186;-83
2021/09/02 02:25:22;;;;;;;4.03;2.83;;;19.50;57.80;;;;;;5041024;28;20166;-81
2021/09/02 02:27:48;;;;;;;4.45;3.03;;;19.50;57.80;;;;;;5040115;28;20174;-81
2021/09/02 02:30:18;;;;;;;3.90;2.70;;;19.50;57.80;;;;;;5041233;28;20375;-82
2021/09/02 02:32:44;;;;;;;3.65;2.50;;;19.50;57.90;;;;;;5041530;28;20163;-80
2021/09/02 02:35:11;;;;;;;3.88;2.85;;;19.50;57.80;;;;;;5041709;28;20194;-83
2021/09/02 02:37:37;;;;;;;3.75;2.53;;;19.50;57.80;;;;;;5040758;28;20152;-81
2021/09/02 02:40:05;;;;;;;3.92;2.70;;;19.50;57.70;;;;;;5040338;28;20155;-81
2021/09/02 02:42:31;;;;;;;4.85;2.60;;;19.50;57.80;;;;;;5040812;28;20166;-83
2021/09/02 02:44:57;;;;;;;3.92;2.70;;;19.50;57.70;;;;;;5040568;28;20261;-81
2021/09/02 02:47:23;;;;;;;3.50;2.70;;;19.50;57.80;;;;;;5040419;28;20178;-80
2021/09/02 02:49:51;;;;;;;3.92;2.78;;;19.50;57.70;;;;;;5040765;28;20550;-80
2021/09/02 02:52:24;;;;;;;4.07;2.80;;;19.50;57.80;;;;;;5040388;28;20162;-79
2021/09/02 02:54:54;;;;;;;3.88;2.83;;;19.50;57.90;;;;;;5039236;28;20375;-80
2021/09/02 02:57:23;;;;;;;3.28;2.53;;;19.50;57.80;;;;;;5023017;28;20253;-81
2021/09/02 02:59:51;;;;;;;4.93;2.90;;;19.40;57.70;;;;;;5056237;28;20179;-80
2021/09/02 03:02:17;;;;;;;3.70;2.90;;;19.40;57.70;;;;;;5056399;28;20217;-80
2021/09/02 03:04:48;;;;;;;4.75;3.13;;;19.50;57.90;;;;;;5039762;28;20163;-82
2021/09/02 03:07:16;;;;;;;3.65;2.38;;;19.40;58.20;;;;;;5006461;28;20244;-82
2021/09/02 03:09:44;;;;;;;4.53;2.67;;;19.50;57.90;;;;;;5038595;28;20178;-81
2021/09/02 03:12:14;;;;;;;3.55;2.70;;;19.40;57.80;;;;;;5038914;28;20264;-81
2021/09/02 03:14:42;;;;;;;3.90;2.92;;;19.40;57.80;;;;;;5039607;28;20214;-81
2021/09/02 03:17:08;;;;;;;3.45;2.67;;;19.40;57.90;;;;;;5039030;28;20265;-81
2021/09/02 03:19:37;;;;;;;4.32;2.70;;;19.50;57.90;;;;;;5040965;28;20155;-82
2021/09/02 03:22:06;;;;;;;3.22;2.38;;;19.40;57.80;;;;;;5038978;28;20265;-80
2021/09/02 03:24:36;;;;;;;3.80;2.63;;;19.50;57.90;;;;;;5038516;28;20175;-80
2021/09/02 03:27:06;;;;;;;3.85;2.53;;;19.50;57.80;;;;;;5022276;28;20261;-79
2021/09/02 03:29:36;;;;;;;3.15;2.40;;;19.50;57.90;;;;;;5038826;28;20178;-83
2021/09/02 03:32:05;;;;;;;3.95;2.70;;;19.50;57.90;;;;;;5055053;28;20182;-82
2021/09/02 03:34:34;;;;;;;4.43;3.08;;;19.40;57.80;;;;;;5054574;28;20761;-80
2021/09/02 03:37:02;;;;;;;4.13;2.83;;;19.40;57.90;;;;;;5038211;28;20181;-80
2021/09/02 03:39:31;;;;;;;3.80;3.00;;;19.40;57.80;;;;;;5055111;28;20210;-79
2021/09/02 03:42:01;;;;;;;4.55;2.60;;;19.40;57.70;;;;;;5054317;28;20236;-83
2021/09/02 03:44:27;;;;;;;3.35;2.47;;;19.40;57.80;;;;;;5037614;28;20660;-82
2021/09/02 03:46:57;;;;;;;3.03;2.40;;;19.40;57.90;;;;;;5038850;28;20155;-79
2021/09/02 03:49:28;;;;;;;3.25;2.50;;;19.40;57.80;;;;;;5037795;28;20214;-81
2021/09/02 03:51:57;;;;;;;4.25;2.67;;;19.40;57.90;;;;;;5055058;28;20607;-80
2021/09/02 03:54:25;;;;;;;4.43;3.00;;;19.40;57.80;;;;;;5037583;28;20232;-80
2021/09/02 03:56:54;;;;;;;3.67;2.58;;;19.40;58.40;;;;;;5055050;28;20178;-80
2021/09/02 03:59:24;;;;;;;4.03;2.53;;;19.40;57.80;;;;;;5037916;28;20273;-81
2021/09/02 04:01:53;;;;;;;4.60;2.80;;;19.40;57.80;;;;;;5038405;28;20289;-82
2021/09/02 04:04:21;;;;;;;3.83;2.50;;;19.30;57.80;;;;;;5037888;28;20186;-82
2021/09/02 04:06:50;;;;;;;3.78;2.45;;;19.40;57.90;;;;;;5038080;28;20241;-81
2021/09/02 04:09:20;;;;;;;4.15;2.90;;;19.40;57.90;;;;;;5054947;28;20183;-81
2021/09/02 04:11:50;;;;;;;3.78;2.55;;;19.40;57.90;;;;;;5060608;28;20317;-77
2021/09/02 04:14:20;;;;;;;3.60;2.60;;;19.50;58.00;;;;;;5060893;28;20268;-82
2021/09/02 04:16:49;;;;;;;3.55;2.47;;;19.40;58.00;;;;;;5060091;28;20202;-79
2021/09/02 04:19:17;;;;;;;3.92;2.47;;;19.40;57.90;;;;;;5044553;28;20183;-79
2021/09/02 04:21:45;;;;;;;3.38;2.40;;;19.40;57.80;;;;;;5041375;28;20273;-80
2021/09/02 04:24:11;;;;;;;3.30;2.42;;;19.40;57.80;;;;;;5045396;28;20210;-78
2021/09/02 04:26:39;;;;;;;3.35;2.70;;;19.40;57.70;;;;;;5042781;28;20158;-80
2021/09/02 04:29:09;;;;;;;3.22;2.25;;;19.40;57.70;;;;;;5044186;28;20210;-80
2021/09/02 04:31:37;;;;;;;3.67;2.67;;;19.40;57.70;;;;;;5040892;28;20200;-80
2021/09/02 04:34:07;;;;;;;4.00;2.42;;;19.40;57.60;;;;;;5037321;28;20562;-81
2021/09/02 04:36:37;;;;;;;5.13;3.08;;;19.40;57.60;;;;;;5036920;28;20237;-82
2021/09/02 04:39:08;;;;;;;4.60;2.60;;;19.40;57.50;;;;;;5036470;28;20189;-80
2021/09/02 04:41:38;;;;;;;3.22;2.38;;;19.40;57.50;;;;;;5019813;28;20190;-83
2021/09/02 04:44:05;;;;;;;3.90;2.60;;;19.40;57.00;;;;;;5037077;28;20191;-81
2021/09/02 04:46:36;;;;;;;2.65;2.10;;;19.40;57.00;;;;;;5004575;28;20183;-81
2021/09/02 04:49:02;;;;;;;3.70;2.58;;;19.40;56.60;;;;;;5036257;28;20197;-83
2021/09/02 04:51:31;;;;;;;3.40;2.33;;;19.40;56.30;;;;;;5037714;28;20618;-82
2021/09/02 04:53:59;;;;;;;2.90;2.20;;;19.40;55.60;;;;;;5036905;28;20211;-80
2021/09/02 04:56:25;;;;;;;3.22;2.10;;;19.40;55.60;;;;;;5038625;28;20170;-81
2021/09/02 04:58:50;;;;;;;3.35;2.25;;;19.50;55.30;;;;;;5037547;28;20165;-79
2021/09/02 05:01:21;;;;;;;2.80;2.03;;;19.50;55.20;;;;;;5037253;28;20242;-78
2021/09/02 05:03:54;;;;;;;3.13;2.10;;;19.40;55.20;;;;;;5020076;28;20277;-80
2021/09/02 05:06:21;;;;;;;2.80;2.00;;;19.40;54.90;;;;;;5048710;28;20712;-81
2021/09/02 05:08:51;;;;;;;2.72;1.88;;;19.50;54.40;;;;;;5053009;28;20196;-82
2021/09/02 05:11:17;;;;;;;3.45;1.80;;;19.50;53.90;;;;;;5038011;28;20574;-82
2021/09/02 05:13:43;;;;;;;3.15;2.22;;;19.50;53.60;;;;;;5070195;28;20292;-82
2021/09/02 05:16:13;;;;;;;2.83;2.00;;;19.50;54.20;;;;;;5074019;28;20187;-84
2021/09/02 05:18:43;;;;;;;3.13;2.10;;;19.60;53.70;;;;;;5026812;28;20178;-82
2021/09/02 05:21:09;;;;;;;3.15;2.40;;;19.50;53.70;;;;;;5052823;28;20264;-81
2021/09/02 05:23:35;;;;;;;2.67;1.95;;;19.50;53.70;;;;;;5062553;28;20699;-78
2021/09/02 05:26:01;;;;;;;2.60;1.90;;;19.50;53.50;;;;;;5062893;28;20183;-81
2021/09/02 05:28:31;;;;;;;2.75;2.08;;;19.50;53.20;;;;;;5080526;28;20217;-80
2021/09/02 05:30:57;;;;;;;2.70;2.00;;;19.50;53.40;;;;;;5046407;28;20177;-81
2021/09/02 05:33:23;;;;;;;3.10;2.10;;;19.50;53.40;;;;;;5045761;28;20545;-80
2021/09/02 05:35:58;;;;;;;2.83;2.10;;;19.50;53.50;;;;;;5047652;28;20177;-80
2021/09/02 05:38:28;;;;;;;2.20;2.00;;;19.50;53.40;;;;;;5047690;28;20188;-78
2021/09/02 05:41:04;;;;;;;2.72;2.00;;;19.50;53.40;;;;;;5065518;28;20213;-79
2021/09/02 05:43:36;;;;;;;3.63;1.83;;;19.50;53.30;;;;;;5031782;28;20272;-78
2021/09/02 05:46:08;;;;;;;2.75;2.00;;;19.50;53.00;;;;;;5048653;28;20242;-79
2021/09/02 05:48:35;;;;;;;4.45;2.40;;;19.50;53.00;;;;;;5048384;28;20272;-78
2021/09/02 05:51:00;;;;;;;2.50;2.05;;;19.60;53.00;;;;;;5065931;28;20165;-79
2021/09/02 05:53:26;;;;;;;3.13;2.00;;;19.50;52.70;;;;;;5052350;28;20166;-79
2021/09/02 05:55:52;;;;;;;3.00;1.95;;;19.60;52.70;;;;;;5067928;28;20204;-81
2021/09/02 05:58:20;;;;;;;2.65;1.80;;;19.50;52.60;;;;;;5086364;28;20176;-79
2021/09/02 06:00:47;;;;;;;2.97;2.05;;;19.60;52.60;;;;;;5068226;28;20260;-79
2021/09/02 06:03:18;;;;;;;3.00;2.25;;;19.70;52.50;;;;;;5051571;28;20178;-78
2021/09/02 06:05:46;;;;;;;2.72;2.00;;;19.70;52.30;;;;;;5067568;28;20197;-78
2021/09/02 06:08:12;;;;;;;3.53;2.13;;;19.70;52.90;;;;;;5067574;28;20230;-78
2021/09/02 06:10:37;;;;;;;3.63;2.10;;;19.60;52.10;;;;;;5084889;28;20228;-81
2021/09/02 06:13:07;;;;;;;2.83;1.85;;;19.70;52.20;;;;;;5086676;28;20178;-82
2021/09/02 06:15:37;;;;;;;3.30;2.10;;;19.70;52.20;;;;;;5067631;28;20680;-80
2021/09/02 06:18:04;;;;;;;2.55;1.90;;;19.70;52.40;;;;;;5067114;28;20177;-80
2021/09/02 06:20:30;;;;;;;2.83;1.83;;;19.70;52.20;;;;;;5084264;28;20185;-78
2021/09/02 06:22:55;;;;;;;2.22;1.73;;;19.70;52.30;;;;;;5081075;28;20173;-79
2021/09/02 06:25:23;;;;;;;2.65;2.00;;;19.90;52.30;;;;;;5058487;28;20512;-78
2021/09/02 06:27:50;;;;;;;2.30;2.00;;;19.80;52.50;;;;;;5070299;28;20173;-79
2021/09/02 06:30:16;;;;;;;2.72;1.95;;;19.80;52.20;;;;;;5066061;28;20624;-79
2021/09/02 06:32:42;;;;;;;3.17;2.10;;;19.80;52.30;;;;;;5048646;28;20155;-79
2021/09/02 06:35:12;;;;;;;4.05;2.20;;;19.80;52.30;;;;;;5047173;28;20200;-81
2021/09/02 06:37:38;;;;;;;2.58;1.63;;;19.80;52.60;;;;;;5052525;28;20250;-78
2021/09/02 06:40:07;;;;;;;3.58;2.15;;;19.80;52.60;;;;;;5084344;28;20676;-79
2021/09/02 06:42:37;;;;;;;2.58;2.22;;;19.80;52.50;;;;;;5032141;28;20175;-79
2021/09/02 06:45:07;;;;;;;2.75;1.88;;;19.80;52.30;;;;;;5081889;28;20605;-78
2021/09/02 06:47:33;;;;;;;2.38;1.70;;;19.80;52.50;;;;;;5063993;28;20204;-80
2021/09/02 06:49:59;;;;;;;2.50;1.80;;;19.80;52.40;;;;;;5079520;28;20605;-80
2021/09/02 06:52:25;;;;;;;3.45;2.08;;;19.80;52.50;;;;;;5061360;28;20161;-80
2021/09/02 06:54:51;;;;;;;2.67;2.05;;;19.90;52.60;;;;;;5061767;28;20238;-79
2021/09/02 06:57:17;;;;;;;2.80;1.90;;;19.80;52.50;;;;;;5076827;28;20149;-80
2021/09/02 06:59:44;;;;;;;2.67;2.17;;;19.80;52.30;;;;;;5078575;28;20160;-80
2021/09/02 07:02:13;;;;;;;3.25;1.80;;;19.80;52.50;;;;;;5061330;28;20262;-81
2021/09/02 07:04:39;;;;;;;2.72;1.90;;;19.80;52.60;;;;;;5044756;28;20189;-79
2021/09/02 07:07:06;;;;;;;2.70;1.83;;;19.70;52.30;;;;;;5062420;28;20162;-79
2021/09/02 07:09:33;;;;;;;3.75;2.15;;;19.70;52.30;;;;;;5060995;28;20547;-82
2021/09/02 07:12:01;;;;;;;1.92;1.73;;;19.70;52.60;;;;;;5060547;28;20220;-82
2021/09/02 07:14:28;;;;;;;2.47;1.98;;;19.70;52.40;;;;;;5060816;28;20205;-82
2021/09/02 07:16:54;;;;;;;3.03;1.63;;;19.80;51.90;;;;;;5077769;28;20185;-79
2021/09/02 07:19:21;;;;;;;1.77;1.55;;;19.70;51.80;;;;;;5043863;28;20648;-82
2021/09/02 07:21:51;;;;;;;2.70;1.63;;;19.70;52.30;;;;;;5044793;28;20247;-79
2021/09/02 07:24:18;;;;;;;3.00;1.80;;;19.70;51.20;;;;;;5061540;28;20186;-80
2021/09/02 07:26:44;;;;;;;2.10;1.70;;;19.80;51.20;;;;;;5080807;28;20523;-81
2021/09/02 07:29:10;;;;;;;2.60;1.95;;;19.70;51.40;;;;;;5079444;28;20569;-81
2021/09/02 07:31:37;;;;;;;3.38;2.10;;;19.70;51.20;;;;;;5027170;28;20162;-80
2021/09/02 07:34:03;;;;;;;2.33;1.63;;;19.70;51.50;;;;;;5059946;28;20237;-80
2021/09/02 07:36:30;;;;;;;2.97;1.80;;;19.70;51.20;;;;;;5060133;28;20159;-80
2021/09/02 07:38:56;;;;;;;1.90;1.52;;;19.70;50.50;;;;;;5057267;28;20617;-81
2021/09/02 07:41:26;;;;;;;2.28;1.73;;;19.70;50.70;;;;;;5058198;28;20162;-80
2021/09/02 07:43:55;;;;;;;2.35;1.55;;;19.70;50.90;;;;;;5058101;28;20303;-81
2021/09/02 07:46:25;;;;;;;2.40;1.70;;;19.70;50.50;;;;;;5040884;28;20178;-80
2021/09/02 07:48:51;;;;;;;1.92;1.40;;;19.70;50.30;;;;;;5024894;28;20204;-80
2021/09/02 07:51:19;;;;;;;2.78;1.40;;;19.80;50.40;;;;;;5060184;28;20688;-80
2021/09/02 07:53:45;;;;;;;2.50;1.80;;;19.80;50.10;;;;;;5061950;28;20643;-79
2021/09/02 07:56:11;;;;;;;2.63;1.90;;;19.80;50.80;;;;;;5041128;28;20175;-81
2021/09/02 07:58:37;;;;;;;3.67;1.77;;;19.90;50.30;;;;;;5041733;28;20158;-82
2021/09/02 08:01:03;;;;;;;2.92;1.70;;;19.90;50.60;;;;;;5040312;28;20159;-80
2021/09/02 08:03:28;;;;;;;2.47;1.83;;;19.90;49.70;;;;;;5040744;28;20162;-80
2021/09/02 08:05:58;;;;;;;1.92;1.63;;;19.80;50.00;;;;;;5040717;28;20159;-80
2021/09/02 08:08:29;;;;;;;2.47;1.80;;;19.70;49.80;;;;;;5040075;28;20661;-80
2021/09/02 08:10:54;;;;;;;2.28;1.60;;;19.70;49.80;;;;;;5041404;28;20252;-80
2021/09/02 08:13:24;;;;;;;2.58;1.58;;;19.70;49.80;;;;;;5042163;28;20614;-80
2021/09/02 08:15:50;;;;;;;2.20;1.48;;;19.70;49.90;;;;;;5041668;28;20665;-80
2021/09/02 08:18:16;;;;;;;1.80;1.50;;;19.70;50.10;;;;;;5043801;28;20186;-80
2021/09/02 08:20:46;;;;;;;2.28;1.50;;;19.70;50.00;;;;;;5058729;28;20171;-80
2021/09/02 08:23:12;;;;;;;2.58;1.60;;;19.70;49.80;;;;;;5041473;28;20653;-81
2021/09/02 08:25:38;;;;;;;2.15;1.38;;;19.70;49.80;;;;;;5042376;28;20177;-80
2021/09/02 08:28:04;;;;;;;2.28;1.70;;;19.80;49.70;;;;;;5025393;28;20166;-80
2021/09/02 08:30:34;;;;;;;2.13;1.83;;;19.70;49.90;;;;;;5042610;28;20573;-80
2021/09/02 08:33:00;;;;;;;2.20;1.60;;;19.70;49.60;;;;;;5042427;28;20185;-80
2021/09/02 08:35:31;;;;;;;2.50;1.70;;;19.70;49.30;;;;;;5042918;28;20207;-80
2021/09/02 08:37:59;;;;;;;1.95;1.55;;;19.70;49.70;;;;;;5043440;28;20245;-80
2021/09/02 08:40:31;;;;;;;3.28;1.40;;;19.80;49.40;;;;;;5044471;28;20171;-80
2021/09/02 08:42:57;;;;;;;2.47;1.63;;;19.70;49.40;;;;;;5044321;28;20178;-80
2021/09/02 08:45:24;;;;;;;2.72;1.50;;;19.70;49.30;;;;;;5010196;28;20167;-80
2021/09/02 08:47:50;;;;;;;2.45;1.70;;;19.80;49.20;;;;;;5026783;28;20676;-80
2021/09/02 08:50:17;;;;;;;2.13;1.50;;;19.80;49.20;;;;;;5026984;28;20155;-80
2021/09/02 08:52:44;;;;;;;1.88;1.45;;;19.70;49.40;;;;;;5027499;28;20154;-81
2021/09/02 08:55:10;;;;;;;1.92;1.50;;;19.70;49.40;;;;;;5043588;28;20209;-80
2021/09/02 08:57:36;;;;;;;1.77;1.48;;;19.80;49.50;;;;;;5042759;28;20157;-80
2021/09/02 09:00:07;;;;;;;1.83;1.52;;;19.70;49.60;;;;;;5043489;28;20151;-80
2021/09/02 09:02:42;;;;;;;2.90;1.30;;;19.70;49.60;;;;;;5042326;28;20182;-80
2021/09/02 09:05:13;;;;;;;1.63;1.30;;;19.70;49.60;;;;;;5025448;28;20178;-80
2021/09/02 09:07:46;;;;;;;1.90;1.30;;;19.70;49.50;;;;;;5025460;28;20190;-80
2021/09/02 09:10:16;;;;;;;2.05;1.67;;;19.70;49.40;;;;;;5041457;28;20162;-82
2021/09/02 09:12:47;;;;;;;3.10;1.55;;;19.70;49.60;;;;;;5037924;28;20167;-80
2021/09/02 09:15:18;;;;;;;1.70;1.40;;;19.70;49.60;;;;;;5021248;28;20245;-80
2021/09/02 09:17:45;;;;;;;2.15;1.45;;;19.70;49.50;;;;;;5037288;28;20252;-81
2021/09/02 09:20:11;;;;;;;1.95;1.55;;;19.80;49.60;;;;;;5054219;28;20174;-84
2021/09/02 09:22:37;;;;;;;2.08;1.33;;;19.80;49.50;;;;;;5037440;28;20151;-80
2021/09/02 09:25:04;;;;;;;1.52;1.40;;;19.80;49.70;;;;;;5055219;28;20257;-80
2021/09/02 09:27:51;;;;;;;2.00;1.40;;;19.80;49.70;;;;;;5054662;28;20191;-81
2021/09/02 09:30:23;;;;;;;1.80;1.30;;;19.80;49.70;;;;;;5038884;28;20621;-80
2021/09/02 09:32:52;;;;;;;1.92;1.30;;;19.80;49.90;;;;;;5036777;28;20178;-80
2021/09/02 09:35:31;;;;;;;1.83;1.38;;;19.80;49.80;;;;;;5037790;28;20187;-84
2021/09/02 09:38:15;;;;;;;1.90;1.50;;;19.80;49.90;;;;;;5021682;28;20240;-80
2021/09/02 09:40:48;;;;;;;2.33;1.20;;;19.80;50.20;;;;;;5038164;28;20154;-82
2021/09/02 09:43:24;;;;;;;1.80;1.40;;;19.80;50.30;;;;;;5039238;28;20183;-80
2021/09/02 09:45:52;;;;;;;3.13;1.50;;;19.70;50.40;;;;;;5025786;28;20183;-80
2021/09/02 09:48:32;;;;;;;1.70;1.35;;;19.70;50.50;;;;;;5043509;28;20151;-80
2021/09/02 09:51:09;;;;;;;1.80;1.40;;;19.70;50.60;;;;;;5058733;28;20158;-79
2021/09/02 09:53:35;;;;;;;3.40;1.70;;;19.70;50.50;;;;;;5043280;28;20158;-81
2021/09/02 09:56:01;;;;;;;1.90;1.48;;;19.80;50.60;;;;;;5042427;28;20163;-80
2021/09/02 09:58:27;;;;;;;2.70;1.35;;;19.80;50.90;;;;;;5043939;28;20609;-81
2021/09/02 10:01:00;;;;;;;3.15;1.50;;;19.70;51.00;;;;;;5043603;28;20159;-80
2021/09/02 10:03:29;;;;;;;2.58;1.45;;;19.70;51.10;;;;;;5026299;28;20186;-80
2021/09/02 10:05:59;;;;;;;1.92;1.40;;;19.70;51.20;;;;;;5025600;28;20198;-79
2021/09/02 10:08:27;;;;;;;2.78;1.40;;;19.70;50.80;;;;;;5043850;28;20187;-80
2021/09/02 10:10:53;;;;;;;3.58;1.52;;;19.70;51.30;;;;;;5026437;28;20360;-80
2021/09/02 10:13:21;;;;;;;1.88;1.20;;;19.70;51.20;;;;;;5043885;28;20151;-80
2021/09/02 10:15:47;;;;;;;2.22;1.70;;;19.70;51.20;;;;;;5043104;28;20210;-79
2021/09/02 10:18:14;;;;;;;1.48;1.38;;;19.60;51.50;;;;;;5043010;28;20151;-80
2021/09/02 10:20:41;;;;;;;1.75;1.25;;;19.60;51.60;;;;;;5045071;28;20166;-80
2021/09/02 10:23:07;;;;;;;1.38;1.17;;;19.60;51.60;;;;;;5051870;28;20173;-79
2021/09/02 10:25:37;;;;;;;1.70;1.30;;;19.60;51.60;;;;;;5060078;28;20159;-80
2021/09/02 10:28:08;;;;;;;2.22;1.40;;;19.70;51.90;;;;;;5042031;28;20174;-81
2021/09/02 10:30:47;;;;;;;1.65;1.33;;;19.70;52.20;;;;;;5067864;28;20227;-81
2021/09/02 10:33:30;;;;;;;1.42;1.33;;;19.60;52.10;;;;;;5082888;28;20181;-79
2021/09/02 10:36:21;;;;;;;2.25;1.30;;;19.70;52.10;;;;;;5067780;28;20196;-80
2021/09/02 10:38:53;;;;;;;1.67;1.27;;;19.70;52.60;;;;;;5053080;28;20182;-80
2021/09/02 10:41:44;;;;;;;2.92;1.50;;;19.70;52.40;;;;;;5051126;28;20260;-80
2021/09/02 10:44:11;;;;;;;1.83;1.35;;;19.70;52.50;;;;;;5067754;28;20656;-80
2021/09/02 10:46:42;;;;;;;2.30;1.23;;;19.70;52.90;;;;;;5049510;28;20204;-80
2021/09/02 10:49:32;;;;;;;1.77;1.15;;;19.70;52.60;;;;;;5049364;28;20255;-80
2021/09/02 10:52:03;;;;;;;2.10;1.25;;;19.70;52.80;;;;;;5037394;28;20174;-80
2021/09/02 10:54:37;;;;;;;4.55;1.20;;;19.70;52.90;;;;;;5057062;28;20213;-80
2021/09/02 10:57:08;;;;;;;1.83;1.38;;;19.60;52.70;;;;;;5065614;28;20196;-80
2021/09/02 10:59:52;;;;;;;1.52;1.20;;;19.70;53.30;;;;;;5046808;28;20189;-80
2021/09/02 11:02:38;;;;;;;1.27;1.00;;;19.70;53.30;;;;;;5064676;28;20150;-81
2021/09/02 11:05:08;;;;;;;1.77;1.40;;;19.60;53.00;;;;;;5050683;28;20170;-80
2021/09/02 11:07:38;;;;;;;1.38;1.27;;;19.70;53.10;;;;;;5064513;28;20268;-80
2021/09/02 11:10:10;;;;;;;2.90;1.20;;;19.60;53.30;;;;;;5062833;28;20252;-80
2021/09/02 11:12:39;;;;;;;2.13;1.58;;;19.70;53.40;;;;;;5080777;28;20699;-81
2021/09/02 11:15:08;;;;;;;1.85;1.17;;;19.70;53.60;;;;;;5046480;28;20318;-82
2021/09/02 11:17:37;;;;;;;2.13;1.45;;;19.70;53.40;;;;;;5062613;28;20189;-80
2021/09/02 11:20:18;;;;;;;1.73;1.35;;;19.70;53.70;;;;;;5038954;28;20600;-85
2021/09/02 11:22:44;;;;;;;3.08;1.50;;;19.60;53.80;;;;;;5055995;28;20154;-84
2021/09/02 11:25:10;;;;;;;1.95;1.40;;;19.70;53.70;;;;;;5037447;28;20181;-85
2021/09/02 11:27:37;;;;;;;1.40;1.10;;;19.70;53.80;;;;;;5053583;28;20177;-85
2021/09/02 11:30:17;;;;;;;1.60;1.13;;;19.70;54.70;;;;;;5052805;28;20154;-84
2021/09/02 11:32:44;;;;;;;1.45;1.17;;;19.70;54.20;;;;;;5052708;28;20558;-81
2021/09/02 11:35:11;;;;;;;2.33;1.20;;;19.70;54.40;;;;;;5053690;28;20668;-82
2021/09/02 11:37:41;;;;;;;2.55;1.50;;;19.70;54.20;;;;;;5052948;28;20273;-82
2021/09/02 11:40:09;;;;;;;1.85;1.35;;;19.70;54.80;;;;;;5053505;28;20182;-84
2021/09/02 11:42:39;;;;;;;2.95;1.40;;;19.80;54.70;;;;;;5056353;28;20182;-84
2021/09/02 11:45:06;;;;;;;2.10;1.20;;;19.80;54.80;;;;;;5039182;28;20194;-84
2021/09/02 11:47:35;;;;;;;6.05;1.50;;;19.80;54.80;;;;;;5040522;28;20208;-84
2021/09/02 11:50:08;;;;;;;2.78;1.30;;;19.90;54.30;;;;;;5060311;28;20172;-84
2021/09/02 11:52:39;;;;;;;2.35;1.50;;;19.80;54.20;;;;;;5041370;28;20205;-86
2021/09/02 11:55:05;;;;;;;2.03;1.30;;;19.90;54.50;;;;;;5056618;28;20178;-85
2021/09/02 11:57:51;;;;;;;2.42;1.30;;;19.90;54.60;;;;;;5058269;28;20157;-86
2021/09/02 12:00:17;;;;;;;4.70;1.10;;;20.00;55.00;;;;;;5060076;28;20154;-85
2021/09/02 12:02:48;;;;;;;4.07;1.33;;;20.00;54.70;;;;;;5042471;28;20181;-83
2021/09/02 12:05:14;;;;;;;2.67;1.20;;;20.00;54.60;;;;;;5043263;28;20172;-85
2021/09/02 12:07:41;;;;;;;4.45;1.50;;;20.10;54.50;;;;;;5058823;28;20577;-85
2021/09/02 12:10:10;;;;;;;1.85;1.30;;;20.10;54.10;;;;;;5058524;28;20583;-86
2021/09/02 12:12:38;;;;;;;3.80;1.30;;;20.00;54.20;;;;;;5042137;28;20221;-85
2021/09/02 12:15:04;;;;;;;5.13;1.60;;;20.00;54.20;;;;;;5009993;28;20220;-84
2021/09/02 12:17:35;;;;;;;1.90;1.42;;;20.00;54.30;;;;;;5056898;28;20185;-86
2021/09/02 12:20:04;;;;;;;3.08;1.40;;;20.00;54.60;;;;;;5008586;28;20174;-85
2021/09/02 12:22:38;;;;;;;3.03;1.20;;;20.00;54.30;;;;;;5025581;28;20730;-85
2021/09/02 12:25:10;;;;;;;2.88;1.50;;;19.90;54.60;;;;;;5040216;28;20308;-82
2021/09/02 12:27:50;;;;;;;3.33;1.52;;;20.10;54.60;;;;;;5026433;28;20212;-83
2021/09/02 12:30:18;;;;;;;2.28;1.30;;;20.10;54.20;;;;;;5011302;28;20182;-83
2021/09/02 12:33:15;;;;;;;2.67;1.52;;;20.10;54.20;;;;;;5043876;28;20320;-85
2021/09/02 12:35:44;;;;;;;2.67;1.60;;;20.20;54.40;;;;;;5027877;28;20226;-82
2021/09/02 12:38:30;;;;;;;2.53;1.40;;;20.10;54.50;;;;;;5027405;28;20331;-84
2021/09/02 12:41:14;;;;;;;5.15;1.67;;;20.10;54.30;;;;;;5029642;28;20196;-83
2021/09/02 12:43:58;;;;;;;2.17;1.30;;;20.00;54.50;;;;;;5025835;28;20224;-83
2021/09/02 12:46:26;;;;;;;2.05;1.65;;;20.00;54.60;;;;;;5046662;28;20778;-83
2021/09/02 12:49:09;;;;;;;1.95;1.60;;;20.20;54.70;;;;;;5048080;28;20169;-83
2021/09/02 12:51:36;;;;;;;2.30;1.67;;;20.10;54.80;;;;;;5063040;28;20177;-84
2021/09/02 12:54:09;;;;;;;2.70;1.80;;;20.10;54.90;;;;;;5063965;28;20209;-83
2021/09/02 12:56:38;;;;;;;3.03;1.45;;;20.10;55.00;;;;;;5047834;28;20268;-85
2021/09/02 12:59:07;;;;;;;4.70;1.70;;;20.10;55.00;;;;;;5032197;28;20184;-85